Time;durP1;ratioP1;P1;durP2;ratioP2;P2;SDS_P1;SDS_P2;PMS_P1;PMS_P2;Temp;Humidity;BMP_temperature;BMP_pressure;BME280_temperature;BME280_humidity;BME280_pressure;Samples;Min_cycle;Max_cycle;Signal;HPM_P1;HPM_P2
2023/05/22 00:02:27;;;;;;;2.97;2.67;;;;;;;19.28;61.68;101247.06;20899489;28;20055;-64
2023/05/22 00:12:29;;;;;;;3.00;2.70;;;;;;;19.23;61.67;101270.09;20899853;28;20087;-64
2023/05/22 00:22:34;;;;;;;2.92;2.60;;;;;;;19.27;61.79;101263.41;20890328;28;20581;-64
2023/05/22 00:32:35;;;;;;;;;;;;;;;19.26;61.73;101243.66;20899567;28;20079;-64
2023/05/22 00:42:37;;;;;;;3.30;3.00;;;;;;;19.23;61.67;101216.94;20897773;28;19925;-64
2023/05/22 00:52:41;;;;;;;3.35;3.05;;;;;;;19.25;61.92;101217.66;20909648;28;20099;-64
2023/05/22 01:02:43;;;;;;;3.30;2.90;;;;;;;19.25;62.07;101204.16;20911990;28;20045;-64
2023/05/22 01:12:54;;;;;;;3.35;2.97;;;;;;;19.26;61.67;101199.63;20912373;28;20099;-64
2023/05/22 01:23:07;;;;;;;3.28;2.97;;;;;;;19.25;62.13;101170.94;20897540;28;20045;-64
2023/05/22 01:33:16;;;;;;;3.20;2.90;;;;;;;19.25;62.17;101155.56;20910203;28;20076;-64
2023/05/22 01:43:20;;;;;;;3.20;2.90;;;;;;;19.21;62.23;101137.94;20908334;28;20497;-64
2023/05/22 01:53:32;;;;;;;3.42;3.13;;;;;;;19.23;62.38;101135.97;20907122;28;20114;-64
2023/05/22 02:03:35;;;;;;;3.35;3.05;;;;;;;19.23;62.35;101133.28;20906012;28;20132;-64
2023/05/22 02:13:37;;;;;;;3.25;2.97;;;;;;;19.23;62.67;101138.66;20898426;28;20063;-64
2023/05/22 02:23:39;;;;;;;3.50;3.20;;;;;;;19.24;62.91;101147.63;20896650;28;20507;-64
2023/05/22 02:33:41;;;;;;;3.55;3.20;;;;;;;19.21;62.91;101146.06;20905296;28;20049;-64
2023/05/22 02:43:43;;;;;;;3.20;2.90;;;;;;;19.21;62.78;101148.75;20904968;28;20044;-64
2023/05/22 02:53:46;;;;;;;3.50;3.20;;;;;;;19.21;62.88;101129.84;20903273;28;20041;-64
2023/05/22 03:03:48;;;;;;;2.97;2.70;;;;;;;19.21;63.00;101115.50;20885660;28;20122;-64
2023/05/22 03:13:49;;;;;;;3.80;3.45;;;;;;;19.19;63.02;101107.56;20889976;28;20131;-64
2023/05/22 03:23:51;;;;;;;3.63;3.33;;;;;;;19.20;63.24;101109.25;20900670;28;20095;-64
2023/05/22 03:33:53;;;;;;;3.72;3.42;;;;;;;19.19;63.18;101123.75;20901430;28;20432;-64
2023/05/22 03:43:56;;;;;;;3.60;3.30;;;;;;;19.19;63.06;101118.34;20899608;28;20052;-64
2023/05/22 03:53:59;;;;;;;3.83;3.47;;;;;;;19.19;63.33;101122.88;20899783;28;20379;-64
2023/05/22 04:04:00;;;;;;;3.67;3.38;;;;;;;19.18;63.51;101104.97;20899728;28;20112;-64
2023/05/22 04:14:02;;;;;;;4.38;3.67;;;;;;;19.18;63.41;101105.84;20884425;28;20052;-64
2023/05/22 04:24:08;;;;;;;4.88;3.90;;;;;;;19.18;63.51;101105.84;20906500;28;20088;-64
2023/05/22 04:34:11;;;;;;;3.72;3.42;;;;;;;19.13;63.65;101094.63;20914512;28;20052;-64
2023/05/22 04:44:13;;;;;;;3.90;3.50;;;;;;;19.17;63.53;101104.16;20912764;28;20102;-63
2023/05/22 04:54:15;;;;;;;3.63;3.33;;;;;;;19.16;63.27;101097.03;20912643;28;20049;-64
2023/05/22 05:04:17;;;;;;;3.50;3.20;;;;;;;19.18;63.34;101115.78;20910991;28;20076;-64
2023/05/22 05:14:19;;;;;;;3.50;3.20;;;;;;;19.17;63.17;101114.94;20900908;28;20524;-64
2023/05/22 05:24:20;;;;;;;3.35;3.05;;;;;;;19.18;63.39;101108.53;20911067;28;20103;-64
2023/05/22 05:34:22;;;;;;;3.30;3.00;;;;;;;19.17;63.37;101109.53;20910049;28;20049;-64
2023/05/22 05:44:32;;;;;;;3.35;3.05;;;;;;;19.17;63.58;101109.53;20907923;28;20569;-64
2023/05/22 05:54:34;;;;;;;3.47;3.17;;;;;;;19.18;63.64;101140.94;20907292;28;20374;-64
2023/05/22 06:04:42;;;;;;;4.85;3.70;;;;;;;19.16;63.42;101133.94;20907158;28;20063;-64
2023/05/22 06:14:44;;;;;;;3.67;3.38;;;;;;;19.17;63.44;101131.13;20893042;28;20067;-64
2023/05/22 06:24:47;;;;;;;3.60;3.30;;;;;;;19.17;63.79;101131.13;20905388;28;20408;-64
2023/05/22 06:34:53;;;;;;;4.07;3.60;;;;;;;19.12;64.32;101133.41;20904325;28;20107;-64
2023/05/22 06:44:55;;;;;;;3.92;3.53;;;;;;;19.18;64.37;101151.72;20903983;28;20555;-64
2023/05/22 06:55:05;;;;;;;3.90;3.50;;;;;;;19.18;64.88;101176.03;20902898;28;20497;-64
2023/05/22 07:05:18;;;;;;;3.75;3.45;;;;;;;19.19;65.16;101188.53;20883199;28;20053;-64
2023/05/22 07:15:25;;;;;;;4.43;4.03;;;;;;;19.20;65.46;101206.41;20906996;28;20071;-64
2023/05/22 07:25:30;;;;;;;;;;;;;;;19.22;65.98;101217.94;20900939;28;20475;-64
2023/05/22 07:35:32;;;;;;;4.05;3.75;;;;;;;19.21;65.97;101213.53;20900127;28;19928;-64
2023/05/22 07:45:34;;;;;;;3.95;3.60;;;;;;;19.21;66.04;101208.13;20900132;28;20049;-64
2023/05/22 07:55:40;;;;;;;4.50;4.10;;;;;;;19.21;66.07;101208.13;20900940;28;20060;-64
2023/05/22 08:05:42;;;;;;;4.68;4.00;;;;;;;19.21;66.07;101208.13;20905088;28;20136;-64
2023/05/22 08:15:43;;;;;;;4.30;3.90;;;;;;;19.24;66.22;101210.53;20898429;28;20053;-64
2023/05/22 08:25:45;;;;;;;4.45;4.05;;;;;;;19.25;66.30;101203.31;20916312;28;20471;-64
2023/05/22 08:35:47;;;;;;;4.25;3.85;;;;;;;19.26;66.10;101202.31;20913534;28;20045;-64
2023/05/22 08:45:56;;;;;;;4.53;4.07;;;;;;;19.26;65.86;101191.53;20914495;28;20080;-64
2023/05/22 08:55:58;;;;;;;3.75;3.45;;;;;;;19.21;66.10;101191.06;20913030;28;20061;-64
2023/05/22 09:06:01;;;;;;;4.28;3.67;;;;;;;19.28;65.85;101186.84;20898380;28;20056;-64
2023/05/22 09:16:10;;;;;;;3.72;3.28;;;;;;;19.27;65.90;101169.78;20911821;28;20052;-64
2023/05/22 09:26:11;;;;;;;3.97;3.67;;;;;;;19.31;65.66;101177.59;20911901;28;20048;-64
2023/05/22 09:36:13;;;;;;;3.97;3.55;;;;;;;19.33;65.38;101175.63;20910435;28;20056;-64
2023/05/22 09:46:16;;;;;;;3.85;3.42;;;;;;;19.35;65.06;101176.31;20909455;28;20049;-64
2023/05/22 09:56:18;;;;;;;3.53;3.22;;;;;;;19.37;65.07;101175.22;20909350;28;20057;-64
2023/05/22 10:06:39;;;;;;;3.80;3.50;;;;;;;19.40;65.15;101179.47;20897311;28;20049;-64
2023/05/22 10:16:42;;;;;;;3.75;3.35;;;;;;;19.41;64.85;101171.22;20906603;28;20079;-64
2023/05/22 10:26:43;;;;;;;4.00;3.25;;;;;;;19.43;64.80;101168.38;20904358;28;20045;-64
2023/05/22 10:37:07;;;;;;;3.40;3.10;;;;;;;19.45;64.86;101169.13;20904863;28;20041;-64
2023/05/22 10:47:18;;;;;;;3.58;3.28;;;;;;;19.49;64.77;101156.19;20904618;28;20067;-64
2023/05/22 10:57:23;;;;;;;3.88;3.10;;;;;;;19.54;65.00;101146.66;20903414;28;20516;-64
2023/05/22 11:07:24;;;;;;;3.28;2.97;;;;;;;19.61;64.29;101129.91;20889084;28;20056;-64
2023/05/22 11:17:27;;;;;;;2.95;2.72;;;;;;;19.66;63.93;101141.13;20883346;28;20584;-64
2023/05/22 11:27:30;;;;;;;2.95;2.70;;;;;;;19.69;63.73;101132.72;20810865;28;20057;-64
2023/05/22 11:37:32;;;;;;;2.97;2.63;;;;;;;19.74;63.46;101118.81;20813915;28;20060;-63
2023/05/22 11:47:33;;;;;;;2.95;2.67;;;;;;;19.80;63.08;101113.66;20796505;28;20568;-64
2023/05/22 11:57:36;;;;;;;3.20;2.67;;;;;;;19.92;62.36;101091.94;20795183;28;20461;-64
2023/05/22 12:07:37;;;;;;;2.55;2.35;;;;;;;20.09;61.97;101076.81;20808607;28;20132;-64
2023/05/22 12:17:39;;;;;;;2.78;2.47;;;;;;;20.14;61.34;101069.13;20812647;28;20056;-64
2023/05/22 12:27:43;;;;;;;2.55;2.35;;;;;;;20.13;61.10;101062.88;20804611;28;20042;-64
2023/05/22 12:37:49;;;;;;;2.50;2.30;;;;;;;20.18;60.91;101080.47;20811201;28;20077;-64
2023/05/22 12:47:51;;;;;;;2.55;2.20;;;;;;;20.17;60.27;101078.78;20814868;28;20073;-64
2023/05/22 12:57:53;;;;;;;2.25;2.05;;;;;;;20.17;60.57;101067.97;20810214;28;20037;-64
2023/05/22 13:07:54;;;;;;;2.70;2.30;;;;;;;20.17;60.68;101066.13;20816114;28;20573;-63
2023/05/22 13:17:56;;;;;;;2.25;2.05;;;;;;;20.17;60.27;101051.75;20809992;28;20501;-63
2023/05/22 13:27:59;;;;;;;3.55;1.95;;;;;;;20.19;60.76;101056.03;20812076;28;20049;-64
2023/05/22 13:38:00;;;;;;;2.17;1.95;;;;;;;20.24;60.90;101048.31;20822623;28;20069;-64
2023/05/22 13:48:02;;;;;;;2.85;2.00;;;;;;;20.22;59.44;101050.31;20828964;28;20046;-64
2023/05/22 13:58:04;;;;;;;2.70;2.33;;;;;;;20.19;59.86;101072.25;20807319;28;20056;-64
2023/05/22 14:08:05;;;;;;;2.85;2.00;;;;;;;20.11;62.00;101075.66;20793672;28;20505;-60
2023/05/22 14:18:07;;;;;;;2.50;2.10;;;;;;;19.94;63.64;101085.38;20805983;28;20049;-64
2023/05/22 14:28:09;;;;;;;4.00;1.85;;;;;;;19.74;64.97;101065.63;20797503;28;20044;-66
2023/05/22 14:38:11;;;;;;;4.30;2.25;;;;;;;19.75;65.67;101088.09;20801468;28;20057;-68
2023/05/22 14:48:13;;;;;;;3.80;2.80;;;;;;;19.70;65.80;101096.63;20792223;28;20085;-68
2023/05/22 14:58:15;;;;;;;3.42;2.72;;;;;;;19.66;66.42;101097.91;20783439;28;20056;-69
2023/05/22 15:08:17;;;;;;;3.17;2.63;;;;;;;19.80;66.65;101110.97;20789337;28;22556;-62
2023/05/22 15:18:19;;;;;;;3.83;2.35;;;;;;;20.07;67.00;101120.22;20800513;28;20049;-63
2023/05/22 15:28:21;;;;;;;3.20;2.47;;;;;;;20.17;68.84;101124.72;20804992;28;20115;-62
2023/05/22 15:38:22;;;;;;;4.88;2.75;;;;;;;20.20;69.97;101129.84;20797767;28;20053;-63
2023/05/22 15:48:24;;;;;;;4.35;3.00;;;;;;;20.22;70.74;101136.81;20798375;28;20132;-64
2023/05/22 15:58:27;;;;;;;4.38;3.00;;;;;;;20.27;71.44;101144.47;20783569;28;20176;-76
2023/05/22 16:08:28;;;;;;;5.55;3.40;;;;;;;20.22;72.29;101141.38;20788907;28;20073;-75
2023/05/22 16:18:30;;;;;;;7.53;4.00;;;;;;;20.17;74.27;101146.34;20802016;28;20064;-77
2023/05/22 16:28:32;;;;;;;6.60;3.72;;;;;;;20.10;74.40;101133.44;20821741;28;20419;-75
2023/05/22 16:38:34;;;;;;;4.57;3.13;;;;;;;20.08;74.63;101140.84;20812300;28;20053;-73
2023/05/22 16:48:35;;;;;;;6.18;3.50;;;;;;;20.00;75.74;101138.00;20815160;28;20045;-75
2023/05/22 16:58:37;;;;;;;5.53;3.35;;;;;;;20.05;75.18;101162.75;20807240;28;20057;-75
2023/05/22 17:08:39;;;;;;;4.78;2.90;;;;;;;20.04;74.66;101171.84;20824750;28;20049;-75
2023/05/22 17:18:41;;;;;;;5.97;3.30;;;;;;;20.03;73.78;101185.50;20827371;28;20041;-75
2023/05/22 17:28:42;;;;;;;5.97;3.05;;;;;;;20.02;73.03;101200.88;20820966;28;20057;-75
2023/05/22 17:38:44;;;;;;;4.70;3.10;;;;;;;20.00;72.75;101208.25;20827989;28;20049;-75
2023/05/22 17:48:45;;;;;;;6.38;3.10;;;;;;;19.99;72.80;101211.97;20828100;28;20054;-75
2023/05/22 17:58:47;;;;;;;4.63;3.35;;;;;;;19.98;72.77;101211.09;20890659;28;20682;-75
2023/05/22 18:08:48;;;;;;;5.35;2.92;;;;;;;19.98;72.05;101212.97;20908283;28;20056;-75
2023/05/22 18:18:50;;;;;;;3.78;2.72;;;;;;;19.97;71.87;101213.97;20907744;28;20052;-75
2023/05/22 18:28:52;;;;;;;4.22;2.92;;;;;;;19.96;71.81;101214.94;20905856;28;20048;-75
2023/05/22 18:38:54;;;;;;;4.57;3.00;;;;;;;19.95;71.80;101221.34;20905456;28;20135;-75
2023/05/22 18:48:55;;;;;;;3.45;2.75;;;;;;;19.94;71.44;101220.47;20898098;28;20133;-75
2023/05/22 18:58:57;;;;;;;3.80;2.33;;;;;;;19.95;71.60;101226.75;20894325;28;20049;-73
2023/05/22 19:08:58;;;;;;;4.40;3.13;;;;;;;19.94;72.29;101241.28;20903451;28;20401;-73
2023/05/22 19:19:01;;;;;;;5.78;3.00;;;;;;;19.94;72.46;101249.38;20902651;28;20052;-73
2023/05/22 19:29:03;;;;;;;4.30;3.00;;;;;;;19.93;72.61;101250.38;20902435;28;20110;-73
2023/05/22 19:39:05;;;;;;;3.83;2.72;;;;;;;19.92;72.97;101267.56;20875792;28;20045;-73
2023/05/22 19:49:06;;;;;;;4.82;3.40;;;;;;;19.91;73.30;101271.28;20834721;28;20103;-73
2023/05/22 19:59:08;;;;;;;4.22;2.90;;;;;;;19.90;73.46;101277.63;20805828;28;20216;-73
2023/05/22 20:09:10;;;;;;;4.00;3.03;;;;;;;19.89;73.36;101294.84;20810414;28;20042;-72
2023/05/22 20:19:13;;;;;;;3.78;2.90;;;;;;;19.88;73.15;101285.00;20808393;28;20137;-73
2023/05/22 20:29:15;;;;;;;5.10;3.47;;;;;;;19.85;73.08;101289.69;20804865;28;20422;-72
2023/05/22 20:39:17;;;;;;;3.92;3.00;;;;;;;19.84;72.82;101285.28;20800266;28;20070;-73
2023/05/22 20:49:19;;;;;;;3.50;3.20;;;;;;;19.81;72.54;101282.88;20820090;28;20054;-72
2023/05/22 20:59:21;;;;;;;3.75;3.05;;;;;;;19.55;72.36;101247.41;20816052;28;20061;-72
2023/05/22 21:09:22;;;;;;;4.72;3.10;;;;;;;19.79;72.11;101289.41;20825470;28;20494;-72
2023/05/22 21:19:24;;;;;;;2.63;2.33;;;;;;;19.78;72.49;101312.88;20817527;28;20057;-73
2023/05/22 21:29:26;;;;;;;3.92;3.10;;;;;;;19.75;72.66;101313.13;20816041;28;20501;-73
2023/05/22 21:39:27;;;;;;;3.00;2.70;;;;;;;19.75;72.21;101310.44;20823865;28;20148;-73
2023/05/22 21:49:29;;;;;;;3.38;2.40;;;;;;;19.73;72.09;101309.72;20824440;28;20046;-73
2023/05/22 21:59:31;;;;;;;3.38;2.72;;;;;;;19.70;72.00;101305.47;20818409;28;20073;-73
2023/05/22 22:09:32;;;;;;;4.68;2.65;;;;;;;19.70;71.45;101296.50;20812526;28;20536;-72
2023/05/22 22:19:34;;;;;;;3.00;2.70;;;;;;;19.69;71.39;101297.50;20823238;28;20053;-73
2023/05/22 22:29:37;;;;;;;3.38;2.97;;;;;;;19.68;71.22;101298.50;20812188;28;20414;-72
2023/05/22 22:39:38;;;;;;;2.95;2.50;;;;;;;19.67;71.12;101283.28;20808574;28;20041;-73
2023/05/22 22:49:41;;;;;;;3.25;2.63;;;;;;;19.62;70.71;101277.44;20814868;28;20129;-73
2023/05/22 22:59:42;;;;;;;3.00;2.70;;;;;;;19.63;70.81;101281.84;20812623;28;20152;-72
2023/05/22 23:09:44;;;;;;;3.17;2.70;;;;;;;19.64;70.42;101303.28;20808723;28;20077;-72
2023/05/22 23:19:46;;;;;;;4.03;2.85;;;;;;;19.61;70.28;101300.88;20799456;28;20111;-73
2023/05/22 23:29:47;;;;;;;3.13;2.60;;;;;;;19.61;70.18;101295.47;20797296;28;20441;-73
2023/05/22 23:39:49;;;;;;;3.20;2.90;;;;;;;19.60;70.04;101301.88;20796935;28;20049;-72
2023/05/22 23:49:51;;;;;;;4.20;3.28;;;;;;;19.59;70.05;101304.72;20807585;28;20044;-72
2023/05/22 23:59:52;;;;;;;3.75;3.13;;;;;;;19.60;69.67;101319.94;20814164;28;20060;-73
